createdAt,value
2019-04-01T00:00:39.654Z,39.13
2019-04-01T00:03:09.913Z,39.27
2019-04-01T00:05:39.169Z,44.40
2019-04-01T00:08:08.446Z,41.33
2019-04-01T00:10:37.684Z,42.77
2019-04-01T00:13:06.952Z,40.50
2019-04-01T00:15:36.255Z,40.53
2019-04-01T00:18:05.736Z,39.43
2019-04-01T00:20:34.976Z,40.37
2019-04-01T00:23:04.429Z,42.70
2019-04-01T00:25:33.802Z,40.50
2019-04-01T00:28:03.063Z,43.67
2019-04-01T00:30:32.321Z,44.57
2019-04-01T00:33:01.688Z,43.50
2019-04-01T00:35:30.917Z,44.57
2019-04-01T00:38:00.216Z,40.97
2019-04-01T00:40:29.416Z,44.37
2019-04-01T00:43:06.691Z,43.63
2019-04-01T00:45:37.187Z,41.23
2019-04-01T00:48:06.459Z,41.37
2019-04-01T00:50:35.707Z,41.43
2019-04-01T00:53:04.969Z,43.77
2019-04-01T00:55:34.360Z,43.33
2019-04-01T00:58:03.646Z,43.30
2019-04-01T01:00:32.896Z,44.47
2019-04-01T01:03:02.163Z,41.07
2019-04-01T01:05:31.422Z,41.73
2019-04-01T01:08:00.700Z,44.87
2019-04-01T01:10:29.956Z,43.27
2019-04-01T01:12:59.195Z,44.50
2019-04-01T01:15:28.435Z,42.40
2019-04-01T01:17:57.818Z,44.80
2019-04-01T01:20:27.060Z,43.93
2019-04-01T01:22:56.309Z,45.63
2019-04-01T01:25:25.589Z,45.80
2019-04-01T01:27:54.857Z,43.63
2019-04-01T01:30:24.154Z,43.50
2019-04-01T01:32:53.417Z,44.80
2019-04-01T01:35:22.687Z,44.73
2019-04-01T01:37:51.945Z,47.27
2019-04-01T01:40:21.215Z,43.40
2019-04-01T01:42:50.484Z,44.13
2019-04-01T01:45:19.749Z,46.43
2019-04-01T01:47:49.072Z,46.23
2019-04-01T01:50:18.342Z,47.07
2019-04-01T01:52:47.609Z,47.40
2019-04-01T01:55:16.877Z,44.37
2019-04-01T01:57:46.605Z,44.50
2019-04-01T02:00:16.403Z,46.50
2019-04-01T02:02:45.630Z,45.57
2019-04-01T02:05:14.887Z,49.97
2019-04-01T02:07:44.128Z,44.57
2019-04-01T02:10:13.794Z,49.20
2019-04-01T02:12:43.029Z,47.00
2019-04-01T02:15:12.300Z,47.90
2019-04-01T02:17:41.528Z,47.53
2019-04-01T02:20:11.197Z,45.40
2019-04-01T02:22:40.435Z,48.00
2019-04-01T02:25:10.006Z,44.23
2019-04-01T02:27:39.239Z,44.67
2019-04-01T02:30:08.820Z,45.80
2019-04-01T02:32:38.047Z,47.67
2019-04-01T02:35:07.445Z,44.87
2019-04-01T02:37:36.699Z,45.27
2019-04-01T02:40:06.864Z,46.67
2019-04-01T02:42:36.113Z,44.53
2019-04-01T02:45:05.703Z,42.77
2019-04-01T02:47:34.944Z,42.83
2019-04-01T02:50:04.438Z,45.00
2019-04-01T02:52:33.676Z,43.10
2019-04-01T02:55:06.738Z,43.13
2019-04-01T02:57:33.902Z,45.97
2019-04-01T03:00:03.447Z,43.40
2019-04-01T03:02:32.690Z,41.50
2019-04-01T03:05:01.939Z,42.53
2019-04-01T03:07:31.168Z,41.03
2019-04-01T03:10:00.569Z,40.07
2019-04-01T03:12:30.049Z,39.13
2019-04-01T03:14:59.277Z,42.00
2019-04-01T03:17:28.546Z,40.50
2019-04-01T03:19:57.782Z,39.20
2019-04-01T03:22:27.055Z,41.00
2019-04-01T03:24:56.341Z,40.87
2019-04-01T03:27:25.603Z,41.77
2019-04-01T03:29:54.832Z,40.60
2019-04-01T03:32:24.126Z,38.30
2019-04-01T03:34:54.162Z,37.00
2019-04-01T03:37:23.464Z,36.40
2019-04-01T03:39:52.671Z,38.20
2019-04-01T03:42:21.953Z,38.37
2019-04-01T03:44:55.087Z,35.23
2019-04-01T03:47:22.200Z,35.00
2019-04-01T03:49:51.444Z,38.03
2019-04-01T03:52:20.707Z,36.27
2019-04-01T03:54:49.942Z,39.40
2019-04-01T03:57:19.214Z,36.70
2019-04-01T03:59:48.481Z,35.07
2019-04-01T04:02:17.748Z,33.07
2019-04-01T04:04:47.001Z,30.10
2019-04-01T04:07:16.276Z,33.60
2019-04-01T04:09:45.514Z,35.53
2019-04-01T04:12:14.778Z,34.43
2019-04-01T04:14:44.009Z,30.57
2019-04-01T04:17:13.274Z,31.43
2019-04-01T04:19:42.493Z,30.10
2019-04-01T04:22:11.768Z,31.30
2019-04-01T04:24:40.998Z,29.20
2019-04-01T04:27:11.308Z,28.33
2019-04-01T04:29:41.151Z,30.30
2019-04-01T04:32:10.401Z,29.77
2019-04-01T04:34:39.630Z,28.40
2019-04-01T04:37:08.909Z,28.87
2019-04-01T04:39:38.130Z,27.47
2019-04-01T04:42:07.389Z,27.40
2019-04-01T04:44:36.620Z,28.00
2019-04-01T04:47:06.196Z,28.90
2019-04-01T04:49:35.425Z,28.83
2019-04-01T04:52:04.869Z,28.40
2019-04-01T04:54:34.212Z,29.43
2019-04-01T04:57:03.499Z,26.73
2019-04-01T04:59:32.734Z,25.27
2019-04-01T05:02:02.020Z,25.03
2019-04-01T05:04:31.255Z,27.47
2019-04-01T05:07:00.897Z,28.27
2019-04-01T05:09:30.124Z,28.10
2019-04-01T05:11:59.376Z,27.63
2019-04-01T05:14:28.625Z,24.23
2019-04-01T05:16:57.906Z,24.30
2019-04-01T05:19:27.599Z,25.20
2019-04-01T05:21:58.245Z,27.30
2019-04-01T05:24:28.698Z,24.23
2019-04-01T05:26:59.896Z,23.67
2019-04-01T05:29:31.163Z,24.87
2019-04-01T05:32:02.095Z,23.07
2019-04-01T05:34:32.781Z,22.60
2019-04-01T05:37:02.008Z,22.53
2019-04-01T05:39:32.185Z,21.43
2019-04-01T05:42:03.254Z,23.60
2019-04-01T05:44:32.530Z,21.70
2019-04-01T05:47:01.889Z,20.27
2019-04-01T05:49:31.143Z,23.90
2019-04-01T05:52:00.363Z,21.03
2019-04-01T05:54:29.663Z,25.03
2019-04-01T05:56:59.093Z,25.17
2019-04-01T05:59:28.379Z,26.23
2019-04-01T06:01:57.789Z,25.17
2019-04-01T06:04:27.062Z,23.27
2019-04-01T06:06:56.503Z,23.23
2019-04-01T06:09:25.777Z,21.27
2019-04-01T06:11:55.305Z,21.77
2019-04-01T06:14:24.646Z,22.43
2019-04-01T06:16:54.886Z,19.77
2019-04-01T06:19:24.678Z,21.97
2019-04-01T06:21:54.331Z,21.00
2019-04-01T06:24:24.875Z,23.70
2019-04-01T06:26:54.203Z,21.97
2019-04-01T06:29:23.637Z,20.43
2019-04-01T06:31:52.896Z,22.67
2019-04-01T06:34:22.170Z,21.47
2019-04-01T06:36:52.019Z,21.27
2019-04-01T06:39:21.301Z,21.20
2019-04-01T06:41:50.533Z,22.67
2019-04-01T06:44:19.814Z,22.90
2019-04-01T06:46:49.055Z,22.07
2019-04-01T06:49:20.389Z,21.77
2019-04-01T06:51:49.314Z,18.70
2019-04-01T06:54:18.991Z,21.70
2019-04-01T06:56:48.347Z,21.73
2019-04-01T06:59:17.952Z,20.67
2019-04-01T07:01:47.438Z,19.07
2019-04-01T07:04:17.009Z,17.87
2019-04-01T07:06:46.249Z,17.93
2019-04-01T07:09:15.614Z,18.70
2019-04-01T07:11:44.938Z,17.57
2019-04-01T07:14:14.403Z,18.33
2019-04-01T07:16:43.752Z,17.93
2019-04-01T07:19:13.006Z,18.10
2019-04-01T07:21:42.575Z,17.10
2019-04-01T07:24:11.850Z,17.27
2019-04-01T07:26:41.120Z,18.37
2019-04-01T07:29:10.945Z,17.60
2019-04-01T07:31:41.038Z,17.30
2019-04-01T07:34:10.286Z,18.00
2019-04-01T07:36:39.546Z,16.00
2019-04-01T07:39:08.787Z,17.85
2019-04-01T07:41:38.050Z,16.95
2019-04-01T07:44:07.317Z,17.52
2019-04-01T07:46:36.586Z,15.60
2019-04-01T07:49:05.856Z,16.97
2019-04-01T07:51:38.348Z,17.10
2019-04-01T07:54:06.233Z,16.32
2019-04-01T07:56:35.504Z,17.42
2019-04-01T07:59:04.750Z,18.40
2019-04-01T08:01:34.049Z,17.42
2019-04-01T08:04:03.313Z,15.50
2019-04-01T08:06:32.716Z,18.10
2019-04-01T08:09:01.953Z,17.62
2019-04-01T08:11:31.212Z,17.82
2019-04-01T08:14:00.767Z,18.75
2019-04-01T08:16:30.358Z,18.25
2019-04-01T08:18:59.698Z,18.45
2019-04-01T08:21:29.405Z,16.05
2019-04-01T08:23:58.692Z,18.52
2019-04-01T08:26:28.413Z,17.92
2019-04-01T08:28:57.679Z,16.40
2019-04-01T08:31:26.998Z,18.45
2019-04-01T08:33:56.219Z,18.02
2019-04-01T08:36:25.832Z,15.23
2019-04-01T08:38:55.712Z,18.27
2019-04-01T08:41:25.073Z,17.35
2019-04-01T08:43:54.356Z,17.70
2019-04-01T08:46:23.747Z,15.28
2019-04-01T08:48:53.025Z,16.37
2019-04-01T08:51:22.330Z,17.32
2019-04-01T08:53:52.019Z,17.30
2019-04-01T08:56:21.329Z,17.77
2019-04-01T08:58:50.598Z,16.70
2019-04-01T09:01:34.276Z,17.15
2019-04-01T09:03:51.182Z,17.23
2019-04-01T09:06:20.477Z,16.93
2019-04-01T09:08:52.019Z,18.48
2019-04-01T09:11:21.698Z,17.32
2019-04-01T09:13:51.105Z,17.45
2019-04-01T09:16:21.748Z,17.55
2019-04-01T09:18:51.020Z,18.55
2019-04-01T09:21:20.392Z,18.62
2019-04-01T09:23:52.179Z,19.57
2019-04-01T09:26:20.682Z,18.70
2019-04-01T09:28:49.947Z,19.45
2019-04-01T09:31:19.307Z,19.12
2019-04-01T09:33:48.564Z,18.90
2019-04-01T09:36:17.827Z,19.35
2019-04-01T09:38:47.102Z,19.73
2019-04-01T09:41:16.395Z,18.82
2019-04-01T09:43:45.686Z,20.10
2019-04-01T09:46:14.946Z,18.82
2019-04-01T09:48:44.214Z,20.17
2019-04-01T09:51:13.463Z,21.05
2019-04-01T09:53:42.728Z,21.03
2019-04-01T09:56:12.003Z,20.73
2019-04-01T09:58:41.302Z,20.87
2019-04-01T10:01:10.614Z,24.73
2019-04-01T10:03:39.900Z,19.90
2019-04-01T10:06:10.478Z,19.07
2019-04-01T10:08:42.355Z,20.47
2019-04-01T10:11:12.602Z,19.83
2019-04-01T10:13:41.954Z,20.17
2019-04-01T10:16:11.028Z,19.37
2019-04-01T10:18:40.429Z,20.40
2019-04-01T10:21:09.691Z,21.10
2019-04-01T10:23:38.998Z,20.00
2019-04-01T10:26:08.515Z,18.73
2019-04-01T10:28:37.807Z,19.20
2019-04-01T10:31:07.421Z,17.50
2019-04-01T10:33:36.688Z,19.00
2019-04-01T10:36:05.939Z,18.70
2019-04-01T10:38:35.411Z,17.83
2019-04-01T10:41:05.005Z,19.23
2019-04-01T10:43:34.405Z,17.62
2019-04-01T10:46:03.665Z,18.23
2019-04-01T10:48:32.976Z,18.40
2019-04-01T10:51:02.237Z,18.90
2019-04-01T10:53:31.598Z,18.52
2019-04-01T10:56:01.026Z,19.67
2019-04-01T10:58:30.409Z,18.60
2019-04-01T11:00:59.749Z,17.95
2019-04-01T11:03:29.063Z,17.90
2019-04-01T11:05:58.475Z,19.12
2019-04-01T11:08:28.171Z,17.23
2019-04-01T11:10:57.584Z,17.12
2019-04-01T11:13:26.883Z,18.60
2019-04-01T11:15:56.139Z,18.35
2019-04-01T11:18:25.530Z,16.55
2019-04-01T11:20:57.058Z,17.30
2019-04-01T11:23:26.198Z,18.02
2019-04-01T11:25:55.452Z,17.45
2019-04-01T11:28:24.751Z,16.17
2019-04-01T11:30:54.014Z,16.67
2019-04-01T11:33:23.320Z,15.32
2019-04-01T11:35:52.589Z,16.50
2019-04-01T11:38:22.199Z,15.90
2019-04-01T11:40:51.538Z,16.30
2019-04-01T11:43:20.876Z,17.35
2019-04-01T11:45:50.205Z,16.27
2019-04-01T11:48:19.682Z,17.15
2019-04-01T11:50:49.069Z,16.70
2019-04-01T11:53:18.301Z,17.15
2019-04-01T11:55:47.533Z,15.40
2019-04-01T11:58:16.831Z,14.05
2019-04-01T12:00:46.103Z,17.80
2019-04-01T12:03:15.369Z,17.95
2019-04-01T12:05:44.947Z,18.00
2019-04-01T12:08:14.211Z,18.12
2019-04-01T12:10:43.466Z,19.15
2019-04-01T12:13:12.772Z,17.87
2019-04-01T12:15:42.029Z,19.70
2019-04-01T12:18:11.342Z,17.25
2019-04-01T12:20:40.679Z,19.07
2019-04-01T12:23:10.272Z,20.80
2019-04-01T12:25:39.564Z,20.45
2019-04-01T12:28:08.806Z,20.40
2019-04-01T12:30:38.092Z,20.68
2019-04-01T12:33:07.359Z,20.00
2019-04-01T12:35:37.328Z,17.77
2019-04-01T12:38:06.824Z,17.33
2019-04-01T12:40:36.099Z,18.10
2019-04-01T12:43:05.504Z,16.82
2019-04-01T12:45:34.795Z,20.12
2019-04-01T12:48:04.064Z,17.62
2019-04-01T12:50:33.348Z,17.98
2019-04-01T12:53:02.669Z,17.20
2019-04-01T12:55:31.978Z,15.95
2019-04-01T12:58:01.233Z,16.10
2019-04-01T13:00:30.593Z,17.27
2019-04-01T13:02:59.875Z,17.67
2019-04-01T13:05:29.164Z,16.40
2019-04-01T13:07:58.432Z,15.30
2019-04-01T13:10:27.835Z,14.80
2019-04-01T13:12:57.139Z,15.23
2019-04-01T13:15:26.461Z,14.30
2019-04-01T13:17:55.708Z,13.77
2019-04-01T13:20:37.205Z,13.10
2019-04-01T13:22:56.011Z,13.83
2019-04-01T13:25:25.304Z,13.13
2019-04-01T13:27:54.548Z,14.27
2019-04-01T13:30:24.390Z,13.77
2019-04-01T13:32:54.845Z,14.10
2019-04-01T13:35:24.141Z,13.43
2019-04-01T13:48:22.375Z,12.73
2019-04-01T13:50:51.660Z,12.47
2019-04-01T13:53:20.931Z,12.50
2019-04-01T13:55:50.275Z,12.47
2019-04-01T13:58:19.506Z,12.90
2019-04-01T14:00:48.806Z,12.63
2019-04-01T14:03:18.205Z,11.97
2019-04-01T14:05:47.604Z,11.67
2019-04-01T14:08:16.850Z,12.07
2019-04-01T14:10:46.142Z,12.27
2019-04-01T14:13:15.376Z,12.17
2019-04-01T14:15:44.644Z,11.10
2019-04-01T14:18:13.877Z,11.70
2019-04-01T14:20:43.138Z,12.13
2019-04-01T14:23:12.373Z,11.40
2019-04-01T14:25:42.280Z,12.50
2019-04-01T14:28:12.453Z,13.40
2019-04-01T14:30:41.733Z,12.53
2019-04-01T14:33:10.998Z,12.20
2019-04-01T14:35:40.408Z,12.97
2019-04-01T14:38:09.655Z,11.63
2019-04-01T14:40:38.933Z,11.27
2019-04-01T14:43:09.794Z,11.63
2019-04-01T14:45:39.388Z,12.63
2019-04-01T14:48:09.005Z,12.10
2019-04-01T14:50:38.370Z,12.20
2019-04-01T14:53:07.608Z,11.57
2019-04-01T14:55:36.887Z,12.47
2019-04-01T14:58:06.132Z,11.80
2019-04-01T15:00:35.461Z,11.63
2019-04-01T15:03:04.758Z,12.10
2019-04-01T15:05:34.066Z,12.30
2019-04-01T15:08:03.373Z,12.37
2019-04-01T15:10:32.712Z,11.60
2019-04-01T15:13:05.693Z,10.77
2019-04-01T15:15:33.101Z,10.60
2019-04-01T15:18:02.376Z,10.90
2019-04-01T15:20:30.443Z,11.00
2019-04-01T15:22:59.703Z,10.90
2019-04-01T15:25:28.986Z,10.60
2019-04-01T15:27:58.525Z,11.67
2019-04-01T15:30:27.870Z,11.23
2019-04-01T15:32:57.355Z,11.40
2019-04-01T15:35:26.605Z,11.00
2019-04-01T15:37:55.917Z,10.87
2019-04-01T15:40:25.368Z,10.97
2019-04-01T15:42:54.651Z,10.90
2019-04-01T15:45:23.913Z,10.73
2019-04-01T15:47:53.210Z,11.47
2019-04-01T15:50:28.772Z,10.90
2019-04-01T15:52:53.453Z,10.90
2019-04-01T15:55:22.688Z,10.00
2019-04-01T15:57:51.947Z,10.50
2019-04-01T16:00:21.209Z,10.30
2019-04-01T16:02:50.485Z,9.87
2019-04-01T16:05:19.723Z,11.57
2019-04-01T16:07:49.009Z,10.80
2019-04-01T16:10:18.281Z,12.70
2019-04-01T16:12:47.554Z,12.47
2019-04-01T16:15:16.811Z,11.63
2019-04-01T16:17:46.066Z,12.47
2019-04-01T16:20:15.710Z,13.50
2019-04-01T16:22:44.989Z,12.00
2019-04-01T16:25:14.230Z,11.87
2019-04-01T16:27:43.530Z,12.37
2019-04-01T16:30:12.862Z,11.80
2019-04-01T16:32:42.144Z,11.47
2019-04-01T16:35:11.508Z,12.13
2019-04-01T16:37:40.883Z,12.53
2019-04-01T16:40:10.326Z,11.40
2019-04-01T16:42:39.612Z,12.73
2019-04-01T16:45:09.558Z,12.50
2019-04-01T16:47:39.976Z,12.33
2019-04-01T16:50:10.838Z,11.90
2019-04-01T16:52:40.124Z,12.50
2019-04-01T16:55:10.222Z,12.13
2019-04-01T16:57:39.597Z,11.50
2019-04-01T17:00:14.314Z,13.10
2019-04-01T17:02:42.235Z,12.17
2019-04-01T17:05:12.458Z,11.60
2019-04-01T17:07:42.138Z,12.77
2019-04-01T17:10:18.672Z,11.77
2019-04-01T17:12:47.944Z,12.03
2019-04-01T17:15:17.193Z,11.37
2019-04-01T17:17:46.744Z,11.63
2019-04-01T17:20:16.202Z,10.73
2019-04-01T17:22:45.560Z,11.40
2019-04-01T17:25:15.282Z,12.30
2019-04-01T17:27:44.809Z,11.57
2019-04-01T17:30:15.177Z,11.67
2019-04-01T17:32:44.419Z,11.43
2019-04-01T17:35:13.981Z,11.90
2019-04-01T17:37:43.228Z,11.53
2019-04-01T17:40:13.001Z,14.27
2019-04-01T17:42:42.257Z,12.23
2019-04-01T17:45:33.537Z,12.60
2019-04-01T17:48:04.424Z,12.97
2019-04-01T17:50:33.746Z,11.77
2019-04-01T17:53:04.545Z,13.67
2019-04-01T17:55:33.777Z,11.37
2019-04-01T17:58:03.019Z,12.47
2019-04-01T18:00:33.540Z,13.83
2019-04-01T18:03:02.782Z,12.50
2019-04-01T18:05:32.049Z,11.77
2019-04-01T18:08:01.298Z,12.17
2019-04-01T18:10:30.829Z,11.93
2019-04-01T18:13:00.080Z,12.13
2019-04-01T18:15:29.349Z,12.53
2019-04-01T18:17:58.609Z,12.27
2019-04-01T18:20:27.896Z,12.57
2019-04-01T18:22:57.508Z,11.73
2019-04-01T18:25:26.881Z,12.57
2019-04-01T18:27:56.225Z,13.03
2019-04-01T18:30:25.585Z,12.43
2019-04-01T18:32:55.543Z,12.53
2019-04-01T18:35:25.487Z,12.10
2019-04-01T18:37:55.021Z,11.40
2019-04-01T18:40:32.779Z,12.50
2019-04-01T18:42:55.245Z,12.53
2019-04-01T18:45:24.527Z,14.27
2019-04-01T18:47:53.781Z,12.90
2019-04-01T18:50:23.077Z,11.47
2019-04-01T18:52:52.313Z,12.63
2019-04-01T18:55:21.573Z,11.77
2019-04-01T18:57:50.825Z,12.47
2019-04-01T19:00:20.501Z,13.97
2019-04-01T19:02:49.735Z,11.67
2019-04-01T19:05:18.997Z,11.90
2019-04-01T19:07:48.358Z,13.40
2019-04-01T19:10:17.618Z,11.23
2019-04-01T19:12:46.882Z,11.37
2019-04-01T19:15:16.401Z,12.23
2019-04-01T19:17:45.602Z,11.70
2019-04-01T19:20:15.266Z,12.93
2019-04-01T19:22:44.495Z,12.27
2019-04-01T19:25:13.757Z,13.57
2019-04-01T19:27:43.002Z,13.60
2019-04-01T19:30:14.722Z,13.57
2019-04-01T19:32:44.097Z,13.60
2019-04-01T19:35:13.556Z,13.27
2019-04-01T19:37:42.835Z,13.40
2019-04-01T19:40:12.848Z,13.67
2019-04-01T19:42:42.096Z,15.97
2019-04-01T19:45:13.221Z,15.93
2019-04-01T19:47:42.448Z,16.63
2019-04-01T19:50:12.016Z,14.43
2019-04-01T19:52:44.212Z,15.10
2019-04-01T19:55:12.483Z,13.77
2019-04-01T19:57:41.727Z,14.43
2019-04-01T20:00:11.444Z,14.10
2019-04-01T20:02:40.678Z,15.20
2019-04-01T20:05:09.946Z,14.17
2019-04-01T20:07:39.182Z,13.27
2019-04-01T20:10:08.855Z,15.17
2019-04-01T20:12:38.093Z,14.20
2019-04-01T20:15:09.486Z,14.77
2019-04-01T20:17:39.587Z,14.47
2019-04-01T20:20:09.542Z,15.87
2019-04-01T20:22:38.780Z,14.90
2019-04-01T20:25:08.647Z,15.07
2019-04-01T20:27:38.043Z,14.13
2019-04-01T20:30:09.374Z,13.27
2019-04-01T20:32:38.855Z,13.93
2019-04-01T20:35:08.398Z,14.93
2019-04-01T20:37:37.743Z,15.43
2019-04-01T20:40:07.813Z,13.53
2019-04-01T20:42:37.075Z,17.07
2019-04-01T20:45:07.235Z,16.03
2019-04-01T20:47:36.485Z,14.53
2019-04-01T20:50:07.147Z,14.67
2019-04-01T20:52:36.465Z,16.83
2019-04-01T20:55:06.600Z,16.23
2019-04-01T20:57:35.870Z,13.97
2019-04-01T21:00:06.266Z,14.50
2019-04-01T21:02:35.563Z,14.67
2019-04-01T21:05:05.517Z,15.73
2019-04-01T21:07:34.775Z,15.50
2019-04-01T21:10:05.528Z,14.17
2019-04-01T21:12:34.783Z,14.57
2019-04-01T21:15:04.137Z,16.53
2019-04-01T21:17:33.398Z,13.93
2019-04-01T21:20:02.642Z,14.63
2019-04-01T21:22:31.918Z,15.13
2019-04-01T21:25:02.214Z,14.73
2019-04-01T21:27:31.801Z,13.57
2019-04-01T21:30:01.034Z,15.17
2019-04-01T21:32:30.302Z,15.03
2019-04-01T21:34:59.701Z,15.47
2019-04-01T21:37:28.962Z,15.80
2019-04-01T21:39:59.160Z,14.60
2019-04-01T21:42:28.763Z,16.93
2019-04-01T21:44:58.004Z,15.50
2019-04-01T21:47:27.249Z,14.40
2019-04-01T21:49:56.520Z,15.23
2019-04-01T21:52:25.791Z,14.67
2019-04-01T21:54:55.031Z,13.67
2019-04-01T21:57:24.276Z,16.17
2019-04-01T21:59:53.525Z,12.53
2019-04-01T22:02:35.196Z,14.73
2019-04-01T22:04:53.788Z,11.93
2019-04-01T22:07:23.051Z,16.27
2019-04-01T22:09:52.300Z,15.93
2019-04-01T22:12:21.557Z,14.13
2019-04-01T22:14:50.824Z,13.23
2019-04-01T22:17:20.113Z,14.27
2019-04-01T22:19:49.363Z,15.00
2019-04-01T22:22:18.644Z,13.33
2019-04-01T22:24:47.883Z,13.50
2019-04-01T22:27:17.134Z,12.13
2019-04-01T22:29:46.368Z,14.10
2019-04-01T22:32:15.627Z,13.13
2019-04-01T22:34:44.861Z,13.47
2019-04-01T22:37:26.422Z,13.33
2019-04-01T22:39:45.506Z,14.03
2019-04-01T22:42:14.835Z,13.20
2019-04-01T22:44:44.063Z,15.10
2019-04-01T22:47:13.322Z,13.63
2019-04-01T22:49:42.575Z,12.90
2019-04-01T22:52:11.999Z,15.03
2019-04-01T22:54:41.228Z,14.20
2019-04-01T22:57:10.482Z,13.60
2019-04-01T22:59:39.720Z,12.73
2019-04-01T23:02:08.998Z,14.30
2019-04-01T23:04:39.185Z,13.50
2019-04-01T23:07:08.847Z,14.33
2019-04-01T23:09:38.063Z,15.83
2019-04-01T23:12:07.320Z,12.83
2019-04-01T23:14:36.526Z,12.40
2019-04-01T23:17:05.784Z,14.60
2019-04-01T23:19:35.024Z,12.80
2019-04-01T23:22:04.990Z,13.13
2019-04-01T23:24:34.237Z,14.33
2019-04-01T23:27:03.496Z,14.37
2019-04-01T23:29:32.746Z,12.30
2019-04-01T23:32:02.014Z,13.23
2019-04-01T23:34:31.249Z,11.70
2019-04-01T23:37:00.498Z,13.77
2019-04-01T23:39:29.727Z,12.77
2019-04-01T23:41:59.349Z,11.60
2019-04-01T23:44:28.993Z,14.30
2019-04-01T23:46:58.223Z,14.00
2019-04-01T23:49:27.500Z,15.53
2019-04-01T23:51:56.732Z,10.87
2019-04-01T23:54:26.019Z,11.60
2019-04-01T23:56:56.175Z,10.80
2019-04-01T23:59:25.779Z,12.80
